createdAt,value
2023-01-28T00:02:12.177Z,15.50
2023-01-28T00:04:40.382Z,16.40
2023-01-28T00:07:08.573Z,15.80
2023-01-28T00:09:39.696Z,16.48
2023-01-28T00:12:08.058Z,15.68
2023-01-28T00:14:36.463Z,15.10
2023-01-28T00:17:06.345Z,13.77
2023-01-28T00:19:34.864Z,14.88
2023-01-28T00:22:05.659Z,17.00
2023-01-28T00:24:33.970Z,18.10
2023-01-28T00:27:03.157Z,19.98
2023-01-28T00:29:31.400Z,20.95
2023-01-28T00:32:00.239Z,20.13
2023-01-28T00:34:30.889Z,20.48
2023-01-28T00:36:59.067Z,20.83
2023-01-28T00:39:27.717Z,19.92
2023-01-28T00:41:55.991Z,20.88
2023-01-28T00:44:26.214Z,19.00
2023-01-28T00:46:55.596Z,18.73
2023-01-28T00:49:26.589Z,18.45
2023-01-28T00:51:54.821Z,17.17
2023-01-28T00:54:23.023Z,18.50
2023-01-28T00:56:53.570Z,18.55
2023-01-28T00:59:21.840Z,18.23
2023-01-28T01:01:50.284Z,17.17
2023-01-28T01:04:26.961Z,16.80
2023-01-28T01:06:55.330Z,16.50
2023-01-28T01:09:23.661Z,17.33
2023-01-28T01:11:51.864Z,17.65
2023-01-28T01:14:20.005Z,17.48
2023-01-28T01:16:48.236Z,17.00
2023-01-28T01:19:16.440Z,15.70
2023-01-28T01:21:44.613Z,14.57
2023-01-28T01:24:14.480Z,15.18
2023-01-28T01:26:44.356Z,14.43
2023-01-28T01:29:12.563Z,16.73
2023-01-28T01:31:43.587Z,15.77
2023-01-28T01:34:11.921Z,16.77
2023-01-28T01:36:40.208Z,15.27
2023-01-28T01:39:10.651Z,16.55
2023-01-28T01:41:39.203Z,15.27
2023-01-28T01:44:27.945Z,14.50
2023-01-28T01:46:56.136Z,14.38
2023-01-28T01:49:26.884Z,15.50
2023-01-28T01:52:03.153Z,14.35
2023-01-28T01:54:33.970Z,15.32
2023-01-28T01:57:04.585Z,14.80
2023-01-28T01:59:34.736Z,16.33
2023-01-28T02:02:05.508Z,15.30
2023-01-28T02:04:40.812Z,15.65
2023-01-28T02:07:12.500Z,15.52
2023-01-28T02:09:42.989Z,15.63
2023-01-28T02:12:17.955Z,16.52
2023-01-28T02:14:52.239Z,15.40
2023-01-28T02:17:22.024Z,14.68
2023-01-28T02:20:11.250Z,14.15
2023-01-28T02:23:00.637Z,13.40
2023-01-28T02:25:55.171Z,14.05
2023-01-28T02:28:46.509Z,14.25
2023-01-28T02:31:22.474Z,12.95
2023-01-28T02:34:02.238Z,14.38
2023-01-28T02:36:52.966Z,14.90
2023-01-28T02:39:25.175Z,16.00
2023-01-28T02:42:00.582Z,17.27
2023-01-28T02:44:28.919Z,16.83
2023-01-28T02:47:15.364Z,17.20
2023-01-28T02:49:46.646Z,18.25
2023-01-28T02:52:51.603Z,16.63
2023-01-28T02:55:49.676Z,18.65
2023-01-28T02:58:50.399Z,17.90
2023-01-28T03:01:43.861Z,18.90
2023-01-28T03:04:29.696Z,19.40
2023-01-28T03:07:04.364Z,18.63
2023-01-28T03:09:33.679Z,16.75
2023-01-28T03:12:29.437Z,18.23
2023-01-28T03:15:40.736Z,19.13
2023-01-28T03:18:36.614Z,17.13
2023-01-28T03:21:38.128Z,17.23
2023-01-28T03:24:32.428Z,17.13
2023-01-28T03:27:42.441Z,16.75
2023-01-28T03:30:41.216Z,16.08
2023-01-28T03:33:35.407Z,17.83
2023-01-28T03:36:22.655Z,17.13
2023-01-28T03:38:50.976Z,18.58
2023-01-28T03:41:24.622Z,17.80
2023-01-28T03:43:56.133Z,17.45
2023-01-28T03:46:25.432Z,17.30
2023-01-28T03:48:54.901Z,17.38
2023-01-28T03:51:23.160Z,18.35
2023-01-28T03:53:51.414Z,18.10
2023-01-28T03:56:24.437Z,16.27
2023-01-28T03:58:54.207Z,18.75
2023-01-28T04:01:22.511Z,14.20
2023-01-28T04:03:51.315Z,15.70
2023-01-28T04:06:30.123Z,16.98
2023-01-28T04:09:24.717Z,16.73
2023-01-28T04:12:16.059Z,17.60
2023-01-28T04:14:50.271Z,17.20
2023-01-28T04:17:29.772Z,16.33
2023-01-28T04:19:58.825Z,17.13
2023-01-28T04:22:27.173Z,16.70
2023-01-28T04:24:55.683Z,16.30
2023-01-28T04:27:24.652Z,16.88
2023-01-28T04:29:52.893Z,15.73
2023-01-28T04:32:47.859Z,17.02
2023-01-28T04:35:42.057Z,16.02
2023-01-28T04:38:26.491Z,17.90
2023-01-28T04:41:14.963Z,16.42
2023-01-28T04:43:44.329Z,15.98
2023-01-28T04:46:33.096Z,15.98
2023-01-28T04:49:24.546Z,16.23
2023-01-28T04:52:12.986Z,15.27
2023-01-28T04:55:04.420Z,15.43
2023-01-28T04:57:32.703Z,14.70
2023-01-28T05:00:01.464Z,16.92
2023-01-28T05:02:29.928Z,15.65
2023-01-28T05:05:00.720Z,17.17
2023-01-28T05:07:59.475Z,16.40
2023-01-28T05:10:28.575Z,16.35
2023-01-28T05:12:56.918Z,16.23
2023-01-28T05:15:25.279Z,16.42
2023-01-28T05:17:57.229Z,16.20
2023-01-28T05:20:26.628Z,16.00
2023-01-28T05:22:57.782Z,16.98
2023-01-28T05:25:37.705Z,17.10
2023-01-28T05:28:06.123Z,17.92
2023-01-28T05:30:34.360Z,17.35
2023-01-28T05:33:03.368Z,16.05
2023-01-28T05:35:32.328Z,16.50
2023-01-28T05:38:00.656Z,16.17
2023-01-28T05:40:29.008Z,15.18
2023-01-28T05:42:58.485Z,15.70
2023-01-28T05:45:40.714Z,13.75
2023-01-28T05:48:16.302Z,14.23
2023-01-28T05:50:50.222Z,13.52
2023-01-28T05:53:24.004Z,13.48
2023-01-28T05:55:53.986Z,14.77
2023-01-28T05:58:22.681Z,14.77
2023-01-28T06:00:50.901Z,15.05
2023-01-28T06:03:24.118Z,14.50
2023-01-28T06:05:53.181Z,13.85
2023-01-28T06:08:21.587Z,16.08
2023-01-28T06:10:52.475Z,15.18
2023-01-28T06:13:22.768Z,16.42
2023-01-28T06:16:10.697Z,15.48
2023-01-28T06:18:59.491Z,15.30
2023-01-28T06:21:30.050Z,15.18
2023-01-28T06:23:59.545Z,16.08
2023-01-28T06:26:27.784Z,16.40
2023-01-28T06:28:56.472Z,15.90
2023-01-28T06:31:24.704Z,15.98
2023-01-28T06:33:52.893Z,15.20
2023-01-28T06:36:21.150Z,15.18
2023-01-28T06:38:49.327Z,15.05
2023-01-28T06:41:17.595Z,15.45
2023-01-28T06:43:45.841Z,14.93
2023-01-28T06:46:14.100Z,15.13
2023-01-28T06:48:42.316Z,15.48
2023-01-28T06:51:10.487Z,16.63
2023-01-28T06:53:41.522Z,15.35
2023-01-28T06:56:10.012Z,15.90
2023-01-28T06:58:38.212Z,17.98
2023-01-28T07:01:06.524Z,16.58
2023-01-28T07:03:34.679Z,15.20
2023-01-28T07:06:02.949Z,16.63
2023-01-28T07:08:31.451Z,16.00
2023-01-28T07:11:00.653Z,15.85
2023-01-28T07:13:28.875Z,14.70
2023-01-28T07:15:57.106Z,16.58
2023-01-28T07:18:25.477Z,15.98
2023-01-28T07:20:53.707Z,15.80
2023-01-28T07:23:21.987Z,14.55
2023-01-28T07:25:50.381Z,14.82
2023-01-28T07:28:21.539Z,14.85
2023-01-28T07:30:53.756Z,15.73
2023-01-28T07:33:22.145Z,14.87
2023-01-28T07:35:50.430Z,16.20
2023-01-28T07:38:18.684Z,15.25
2023-01-28T07:40:47.473Z,15.30
2023-01-28T07:43:15.899Z,14.50
2023-01-28T07:45:44.890Z,14.95
2023-01-28T07:48:16.059Z,15.38
2023-01-28T07:50:44.371Z,15.40
2023-01-28T07:53:12.907Z,14.32
2023-01-28T07:55:41.192Z,15.63
2023-01-28T07:58:11.461Z,17.27
2023-01-28T08:00:40.921Z,15.10
2023-01-28T08:03:18.529Z,16.65
2023-01-28T08:05:50.381Z,16.35
2023-01-28T08:08:19.087Z,16.75
2023-01-28T08:10:47.797Z,15.95
2023-01-28T08:13:17.901Z,17.17
2023-01-28T08:15:47.015Z,16.20
2023-01-28T08:18:16.521Z,16.17
2023-01-28T08:20:47.309Z,15.65
2023-01-28T08:23:18.610Z,15.85
2023-01-28T08:25:47.969Z,17.73
2023-01-28T08:28:17.141Z,16.95
2023-01-28T08:30:45.841Z,17.20
2023-01-28T08:33:15.846Z,15.73
2023-01-28T08:35:44.434Z,17.25
2023-01-28T08:38:15.450Z,16.80
2023-01-28T08:40:43.712Z,18.70
2023-01-28T08:43:12.719Z,16.88
2023-01-28T08:45:41.639Z,17.70
2023-01-28T08:48:16.056Z,17.50
2023-01-28T08:50:45.164Z,18.13
2023-01-28T08:53:16.524Z,17.85
2023-01-28T08:55:45.081Z,15.45
2023-01-28T08:58:15.823Z,15.18
2023-01-28T09:00:45.547Z,15.48
2023-01-28T09:03:13.891Z,14.52
2023-01-28T09:05:42.118Z,14.23
2023-01-28T09:08:12.951Z,14.00
2023-01-28T09:10:42.360Z,14.35
2023-01-28T09:13:14.100Z,15.35
2023-01-28T09:15:42.977Z,14.82
2023-01-28T09:18:11.544Z,13.68
2023-01-28T09:20:40.137Z,14.85
2023-01-28T09:23:09.236Z,14.60
2023-01-28T09:25:37.928Z,14.23
2023-01-28T09:28:09.183Z,12.68
2023-01-28T09:30:38.226Z,13.55
2023-01-28T09:33:07.324Z,13.65
2023-01-28T09:35:36.944Z,12.70
2023-01-28T09:38:05.734Z,13.25
2023-01-28T09:40:42.436Z,12.40
2023-01-28T09:43:41.707Z,13.43
2023-01-28T09:46:13.556Z,13.43
2023-01-28T09:48:49.192Z,12.77
2023-01-28T09:51:40.060Z,14.38
2023-01-28T09:54:29.299Z,14.75
2023-01-28T09:57:23.005Z,13.95
2023-01-28T10:02:28.139Z,13.18
2023-01-28T10:05:17.235Z,12.80
2023-01-28T10:07:54.921Z,12.25
2023-01-28T10:10:50.705Z,12.63
2023-01-28T10:13:40.690Z,12.98
2023-01-28T10:16:40.045Z,12.40
2023-01-28T10:19:17.022Z,13.27
2023-01-28T10:22:13.088Z,13.82
2023-01-28T10:25:06.487Z,12.13
2023-01-28T10:27:37.360Z,13.05
2023-01-28T10:30:20.350Z,13.27
2023-01-28T10:33:01.891Z,12.27
2023-01-28T10:35:35.745Z,13.52
2023-01-28T10:38:08.443Z,12.90
2023-01-28T10:40:37.291Z,12.30
2023-01-28T10:43:05.477Z,12.88
2023-01-28T10:45:48.168Z,11.88
2023-01-28T10:48:27.089Z,13.07
2023-01-28T10:51:02.636Z,13.18
2023-01-28T10:53:37.627Z,14.38
2023-01-28T10:56:26.053Z,12.57
2023-01-28T10:59:28.429Z,12.73
2023-01-28T11:02:23.886Z,13.20
2023-01-28T11:05:03.358Z,12.23
2023-01-28T11:07:31.798Z,11.57
2023-01-28T11:10:00.253Z,12.60
2023-01-28T11:12:30.873Z,13.15
2023-01-28T11:15:02.064Z,12.13
2023-01-28T11:17:36.275Z,13.93
2023-01-28T11:20:41.456Z,12.43
2023-01-28T11:23:26.399Z,11.00
2023-01-28T11:26:19.815Z,10.68
2023-01-28T11:28:48.481Z,11.50
2023-01-28T11:31:19.336Z,11.35
2023-01-28T11:33:53.488Z,11.38
2023-01-28T11:36:26.974Z,12.18
2023-01-28T11:38:56.410Z,11.93
2023-01-28T11:41:34.607Z,11.25
2023-01-28T11:44:19.431Z,11.32
2023-01-28T11:47:08.919Z,9.73
2023-01-28T11:49:49.134Z,9.43
2023-01-28T11:52:38.760Z,9.93
2023-01-28T11:55:11.728Z,9.50
2023-01-28T11:57:56.910Z,10.05
2023-01-28T12:00:50.841Z,9.52
2023-01-28T12:03:52.898Z,9.55
2023-01-28T12:06:51.465Z,10.57
2023-01-28T12:09:31.168Z,11.18
2023-01-28T12:12:24.927Z,9.27
2023-01-28T12:15:17.474Z,9.65
2023-01-28T12:18:13.475Z,9.30
2023-01-28T12:20:47.731Z,9.68
2023-01-28T12:23:36.453Z,10.05
2023-01-28T12:26:16.528Z,8.43
2023-01-28T12:28:47.491Z,8.40
2023-01-28T12:31:46.702Z,8.35
2023-01-28T12:34:33.674Z,8.18
2023-01-28T12:37:22.839Z,8.57
2023-01-28T12:40:31.390Z,10.43
2023-01-28T12:43:31.558Z,8.27
2023-01-28T12:46:08.716Z,8.85
2023-01-28T12:48:44.199Z,7.97
2023-01-28T12:51:23.933Z,9.18
2023-01-28T12:54:01.273Z,9.13
2023-01-28T12:56:42.308Z,11.50
2023-01-28T12:59:18.079Z,9.55
2023-01-28T13:01:57.389Z,8.13
2023-01-28T13:04:44.455Z,6.20
2023-01-28T13:07:25.055Z,7.70
2023-01-28T13:10:14.947Z,7.70
2023-01-28T13:12:44.640Z,7.00
2023-01-28T13:15:17.195Z,7.63
2023-01-28T13:18:00.589Z,7.90
2023-01-28T13:20:36.793Z,6.95
2023-01-28T13:23:21.765Z,7.03
2023-01-28T13:25:52.303Z,7.45
2023-01-28T13:28:29.400Z,7.68
2023-01-28T13:31:17.623Z,7.78
2023-01-28T13:34:02.574Z,7.75
2023-01-28T13:36:43.878Z,6.85
2023-01-28T13:39:18.353Z,7.68
2023-01-28T13:41:55.394Z,7.03
2023-01-28T13:44:30.778Z,7.25
2023-01-28T13:47:07.541Z,7.35
2023-01-28T13:49:43.705Z,7.43
2023-01-28T13:52:11.927Z,7.80
2023-01-28T13:54:55.959Z,7.90
2023-01-28T13:58:10.230Z,7.03
2023-01-28T14:01:16.989Z,7.00
2023-01-28T14:04:33.379Z,7.82
2023-01-28T14:07:39.313Z,8.02
2023-01-28T14:10:26.802Z,9.02
2023-01-28T14:13:12.782Z,9.45
2023-01-28T14:16:10.727Z,9.25
2023-01-28T14:18:44.708Z,9.10
2023-01-28T14:21:16.402Z,9.40
2023-01-28T14:23:53.151Z,9.75
2023-01-28T14:26:36.161Z,9.57
2023-01-28T14:29:27.576Z,10.52
2023-01-28T14:31:56.451Z,9.30
2023-01-28T14:34:29.341Z,9.73
2023-01-28T14:37:01.673Z,8.65
2023-01-28T14:39:33.643Z,8.85
2023-01-28T14:42:03.559Z,9.93
2023-01-28T14:44:38.628Z,8.88
2023-01-28T14:47:42.825Z,8.77
2023-01-28T14:53:24.632Z,9.30
2023-01-28T14:56:30.385Z,10.07
2023-01-28T14:59:07.672Z,10.30
2023-01-28T15:01:36.175Z,9.00
2023-01-28T15:04:05.002Z,10.15
2023-01-28T15:06:36.312Z,9.27
2023-01-28T15:09:09.921Z,9.40
2023-01-28T15:11:41.480Z,8.65
2023-01-28T15:14:36.049Z,7.97
2023-01-28T15:17:04.985Z,8.82
2023-01-28T15:19:36.133Z,7.97
2023-01-28T15:22:07.607Z,8.73
2023-01-28T15:24:36.957Z,8.98
2023-01-28T15:27:05.260Z,9.02
2023-01-28T15:29:37.744Z,9.10
2023-01-28T15:32:28.497Z,8.90
2023-01-28T15:34:59.157Z,9.77
2023-01-28T15:37:27.373Z,8.93
2023-01-28T15:40:06.109Z,9.00
2023-01-28T15:42:35.144Z,8.88
2023-01-28T15:45:04.589Z,9.82
2023-01-28T15:47:37.385Z,9.40
2023-01-28T15:50:08.421Z,9.40
2023-01-28T15:52:39.488Z,9.02
2023-01-28T15:55:29.734Z,9.18
2023-01-28T15:57:58.133Z,8.30
2023-01-28T16:00:26.414Z,8.75
2023-01-28T16:02:55.490Z,9.15
2023-01-28T16:05:53.742Z,10.02
2023-01-28T16:08:33.397Z,8.77
2023-01-28T16:11:01.768Z,8.85
2023-01-28T16:13:33.339Z,8.55
2023-01-28T16:16:03.943Z,9.48
2023-01-28T16:18:39.888Z,9.93
2023-01-28T16:21:19.634Z,10.05
2023-01-28T16:24:02.924Z,10.25
2023-01-28T16:26:34.376Z,10.63
2023-01-28T16:29:13.970Z,12.38
2023-01-28T16:32:29.457Z,14.13
2023-01-28T16:34:57.823Z,16.55
2023-01-28T16:40:01.911Z,16.15
2023-01-28T16:42:33.107Z,15.15
2023-01-28T16:45:05.190Z,14.55
2023-01-28T16:47:33.611Z,14.40
2023-01-28T16:50:01.789Z,14.15
2023-01-28T16:52:30.028Z,13.80
2023-01-28T16:54:59.140Z,13.75
2023-01-28T16:57:27.409Z,14.13
2023-01-28T16:59:55.590Z,13.63
2023-01-28T17:02:23.858Z,15.93
2023-01-28T17:04:52.077Z,14.20
2023-01-28T17:07:20.261Z,14.88
2023-01-28T17:09:48.558Z,14.57
2023-01-28T17:12:16.788Z,14.77
2023-01-28T17:14:44.948Z,14.77
2023-01-28T17:17:13.118Z,14.52
2023-01-28T17:19:41.260Z,13.57
2023-01-28T17:22:09.506Z,12.77
2023-01-28T17:24:37.753Z,13.57
2023-01-28T17:27:06.075Z,14.15
2023-01-28T17:29:34.499Z,12.07
2023-01-28T17:32:03.065Z,11.98
2023-01-28T17:34:31.626Z,10.55
2023-01-28T17:36:59.846Z,11.50
2023-01-28T17:39:28.188Z,11.52
2023-01-28T17:41:56.432Z,12.93
2023-01-28T17:44:24.733Z,11.77
2023-01-28T17:46:52.929Z,12.35
2023-01-28T17:49:21.130Z,13.07
2023-01-28T17:51:49.398Z,11.73
2023-01-28T17:54:18.040Z,13.15
2023-01-28T17:56:47.093Z,13.48
2023-01-28T17:59:17.552Z,12.25
2023-01-28T18:01:47.448Z,13.85
2023-01-28T18:04:15.812Z,13.90
2023-01-28T18:06:44.815Z,13.48
2023-01-28T18:09:13.250Z,13.32
2023-01-28T18:11:41.428Z,13.07
2023-01-28T18:14:09.652Z,13.23
2023-01-28T18:16:37.894Z,13.95
2023-01-28T18:19:06.600Z,12.88
2023-01-28T18:21:51.800Z,12.65
2023-01-28T18:24:31.125Z,13.07
2023-01-28T18:27:00.862Z,12.20
2023-01-28T18:29:31.534Z,12.98
2023-01-28T18:31:59.947Z,12.80
2023-01-28T18:34:31.590Z,12.98
2023-01-28T18:36:59.977Z,14.57
2023-01-28T18:39:31.539Z,13.82
2023-01-28T18:42:01.614Z,14.68
2023-01-28T18:44:31.367Z,15.52
2023-01-28T18:46:59.609Z,14.82
2023-01-28T18:49:27.808Z,16.30
2023-01-28T18:51:56.004Z,15.30
2023-01-28T18:54:24.875Z,16.25
2023-01-28T18:56:53.116Z,14.98
2023-01-28T18:59:21.535Z,14.40
2023-01-28T19:01:50.217Z,15.82
2023-01-28T19:04:19.181Z,16.70
2023-01-28T19:06:47.974Z,16.48
2023-01-28T19:09:17.171Z,17.38
2023-01-28T19:11:46.064Z,15.27
2023-01-28T19:14:15.251Z,15.23
2023-01-28T19:16:43.789Z,15.13
2023-01-28T19:19:12.342Z,14.93
2023-01-28T19:21:40.671Z,16.10
2023-01-28T19:24:11.895Z,15.30
2023-01-28T19:26:41.802Z,16.05
2023-01-28T19:29:13.347Z,15.48
2023-01-28T19:31:49.002Z,16.48
2023-01-28T19:34:17.530Z,15.10
2023-01-28T19:36:45.853Z,14.60
2023-01-28T19:39:14.769Z,15.77
2023-01-28T19:41:43.175Z,14.75
2023-01-28T19:44:11.653Z,15.70
2023-01-28T19:46:41.590Z,16.00
2023-01-28T19:49:12.205Z,16.42
2023-01-28T19:51:45.092Z,18.33
2023-01-28T19:54:13.532Z,18.17
2023-01-28T19:56:41.729Z,18.77
2023-01-28T19:59:10.095Z,21.80
2023-01-28T20:01:38.344Z,23.90
2023-01-28T20:04:06.908Z,24.75
2023-01-28T20:06:36.325Z,23.90
2023-01-28T20:09:08.575Z,23.33
2023-01-28T20:11:37.037Z,21.60
2023-01-28T20:14:05.390Z,21.73
2023-01-28T20:16:35.053Z,20.35
2023-01-28T20:19:06.145Z,20.20
2023-01-28T20:21:35.474Z,17.58
2023-01-28T20:24:04.896Z,17.27
2023-01-28T20:26:35.931Z,18.90
2023-01-28T20:29:06.710Z,18.88
2023-01-28T20:31:36.575Z,19.25
2023-01-28T20:34:08.609Z,18.85
2023-01-28T20:36:36.789Z,18.63
2023-01-28T20:39:04.975Z,18.30
2023-01-28T20:41:33.189Z,17.27
2023-01-28T20:44:04.855Z,18.40
2023-01-28T20:46:36.539Z,17.02
2023-01-28T20:49:07.814Z,16.40
2023-01-28T20:51:36.452Z,16.95
2023-01-28T20:54:05.069Z,15.52
2023-01-28T20:56:33.397Z,15.40
2023-01-28T20:59:04.261Z,16.67
2023-01-28T21:01:34.496Z,16.65
2023-01-28T21:04:03.824Z,17.83
2023-01-28T21:06:32.225Z,16.90
2023-01-28T21:09:00.781Z,16.52
2023-01-28T21:11:29.550Z,17.45
2023-01-28T21:13:58.079Z,19.88
2023-01-28T21:16:26.959Z,18.17
2023-01-28T21:18:55.169Z,17.60
2023-01-28T21:21:26.371Z,18.20
2023-01-28T21:23:57.828Z,17.98
2023-01-28T21:26:26.751Z,18.92
2023-01-28T21:28:56.291Z,16.60
2023-01-28T21:31:26.536Z,17.70
2023-01-28T21:33:56.715Z,19.38
2023-01-28T21:36:25.900Z,19.70
2023-01-28T21:38:56.043Z,20.42
2023-01-28T21:41:24.889Z,20.17
2023-01-28T21:43:54.743Z,19.38
2023-01-28T21:46:24.735Z,19.45
2023-01-28T21:48:57.472Z,19.92
2023-01-28T21:51:35.988Z,22.50
2023-01-28T21:54:14.683Z,22.38
2023-01-28T21:56:45.460Z,23.95
2023-01-28T21:59:29.992Z,21.52
2023-01-28T22:02:15.122Z,21.05
2023-01-28T22:04:46.463Z,21.83
2023-01-28T22:07:18.584Z,20.77
2023-01-28T22:09:48.071Z,18.98
2023-01-28T22:12:16.627Z,20.30
2023-01-28T22:14:45.921Z,20.15
2023-01-28T22:17:14.929Z,20.25
2023-01-28T22:19:47.951Z,20.30
2023-01-28T22:22:17.131Z,19.48
2023-01-28T22:24:45.477Z,20.40
2023-01-28T22:27:14.237Z,19.23
2023-01-28T22:29:42.403Z,18.95
2023-01-28T22:32:10.551Z,19.90
2023-01-28T22:34:38.721Z,22.35
2023-01-28T22:37:07.333Z,23.92
2023-01-28T22:39:35.475Z,21.77
2023-01-28T22:42:03.846Z,21.13
2023-01-28T22:44:32.277Z,22.63
2023-01-28T22:47:00.463Z,22.02
2023-01-28T22:49:28.673Z,22.13
2023-01-28T22:51:56.949Z,22.58
2023-01-28T22:54:27.152Z,18.42
2023-01-28T22:56:55.522Z,22.08
2023-01-28T22:59:23.662Z,20.63
2023-01-28T23:01:52.527Z,21.10
2023-01-28T23:04:20.793Z,20.52
2023-01-28T23:06:48.967Z,22.05
2023-01-28T23:09:17.152Z,22.60
2023-01-28T23:11:45.335Z,24.58
2023-01-28T23:14:32.136Z,25.17
2023-01-28T23:17:18.798Z,25.67
2023-01-28T23:20:05.578Z,25.67
2023-01-28T23:22:53.425Z,26.48
2023-01-28T23:25:23.526Z,26.02
2023-01-28T23:27:51.711Z,25.13
2023-01-28T23:30:25.158Z,23.75
2023-01-28T23:32:57.094Z,23.15
2023-01-28T23:35:28.087Z,21.42
2023-01-28T23:37:56.654Z,22.88
2023-01-28T23:40:27.235Z,21.98
2023-01-28T23:42:56.426Z,19.83
2023-01-28T23:45:25.339Z,21.50
2023-01-28T23:47:53.631Z,19.85
2023-01-28T23:50:22.810Z,20.45
2023-01-28T23:52:51.006Z,17.75
2023-01-28T23:55:19.232Z,19.58
2023-01-28T23:57:47.386Z,20.83
